Stolt Spray — ZCSQ9 — position and weather

sailwx.info

Track history (hours):
 
Tides and Currents Weather Stations Pressure Air Temp Water Temp Dewpoint Dewpoint Depression Visibility Wind Speed Wind Dir Waves Ship Positions

Stolt Spray

Last reported at 2014-Nov-20 04:20 UTC. Time now 2014-Nov-22 15:42 UTC.
Position N 25°47' W 079°47'.

Length 163 m; draft 7.5 m.

Type: Ship (hazmat cat A). MMSI: 319591000.

Date/timePositionNaut miles runAvg speedWind from/ knotsBaromVisibWave heightAir tempDewpointWater temp
2014-Nov-20 04:20N 25°47' W 079°47'810.7
2014-Nov-20 03:34N 25°56' W 079°48'1110.6
2014-Nov-20 02:34N 26°06' W 079°50'1010.5
2014-Nov-20 01:34N 26°16' W 079°47'1010.5
2014-Nov-20 00:34N 26°27' W 079°46'1110.3
2014-Nov-19 23:33N 26°37' W 079°46'1410.4
2014-Nov-19 22:15N 26°51' W 079°45'710.2
2014-Nov-19 21:34N 26°58' W 079°45'314 8.5
2014-Nov-18 08:23N 32°05' W 081°03'0 0.0
2014-Nov-18 07:26N 32°05' W 081°03'0 0.0
2014-Nov-18 05:32N 32°05' W 081°03'0 0.0
2014-Nov-18 04:32N 32°05' W 081°03'0 0.0
2014-Nov-18 03:32N 32°05' W 081°03'0 0.0
2014-Nov-18 02:32N 32°05' W 081°03'0 0.0
2014-Nov-18 01:32N 32°05' W 081°03'0 0.0
2014-Nov-18 00:32N 32°05' W 081°03'0 0.0
2014-Nov-17 23:32N 32°05' W 081°03'0 0.0
2014-Nov-17 22:29N 32°05' W 081°03'0 0.0
2014-Nov-17 21:32N 32°05' W 081°03'0 0.0
2014-Nov-17 20:32N 32°05' W 081°03'0 0.0
2014-Nov-17 19:32N 32°05' W 081°03'0 0.0
2014-Nov-17 18:30N 32°05' W 081°03'0 0.0
2014-Nov-17 17:32N 32°05' W 081°03'1 1.1
2014-Nov-17 16:33N 32°05' W 081°04'  
2014-Nov-15 01:33N 39°28' W 073°55'1010.3
2014-Nov-15 00:33N 39°38' W 073°53'1110.3
2014-Nov-14 23:30N 39°49' W 073°52'39 9.8
2014-Nov-14 19:33N 40°28' W 073°51'1010.0
2014-Nov-14 18:33N 40°34' W 074°02'6 6.2
2014-Nov-14 17:33N 40°39' W 074°07'0 0.0
2014-Nov-14 05:33N 40°39' W 074°07'3 2.6
2014-Nov-14 04:32N 40°41' W 074°08'1 0.0
2014-Nov-13 06:33N 40°41' W 074°08'2 2.2
2014-Nov-13 05:31N 40°39' W 074°06'0 0.0
2014-Nov-12 15:16N 40°39' W 074°06'0 0.0
2014-Nov-12 14:31N 40°39' W 074°06'0 0.0
2014-Nov-12 13:31N 40°39' W 074°06'0 0.0
2014-Nov-12 12:16N 40°39' W 074°06'2 2.3
2014-Nov-12 11:33N 40°39' W 074°04'1 0.6
2014-Nov-12 10:32N 40°38' W 074°04'0 0.0
2014-Nov-12 09:32N 40°38' W 074°04'0 0.0
2014-Nov-12 08:32N 40°38' W 074°04'0 0.0
2014-Nov-12 07:32N 40°38' W 074°04'0 0.0
2014-Nov-12 06:32N 40°38' W 074°04'0 0.3
2014-Nov-12 05:33N 40°38' W 074°04'7 7.2
2014-Nov-12 04:33N 40°31' W 073°60'1010.1
2014-Nov-12 03:33N 40°26' W 073°48'8 8.5
2014-Nov-12 02:33N 40°18' W 073°46'9 8.6
2014-Nov-12 01:33N 40°09' W 073°45'1312.7
2014-Nov-12 00:33N 39°57' W 073°44'1313.0
2014-Nov-11 23:33N 39°44' W 073°42'1313.0
2014-Nov-11 22:33N 39°31' W 073°40'1312.9
2014-Nov-11 21:33N 39°18' W 073°37'1313.0
2014-Nov-11 20:33N 39°05' W 073°35'1312.7
2014-Nov-11 19:33N 38°53' W 073°33'1312.7
2014-Nov-11 18:33N 38°40' W 073°31'1212.5
2014-Nov-11 17:33N 38°28' W 073°29'1312.6
2014-Nov-11 16:33N 38°15' W 073°27'  
Track history (hours):
 
Tides and Currents Weather Stations Pressure Air Temp Water Temp Dewpoint Dewpoint Depression Visibility Wind Speed Wind Dir Waves Ship Positions

Stolt Spray

Last reported at 2014-Nov-20 04:20 UTC. Time now 2014-Nov-22 15:42 UTC.
Position N 25°47' W 079°47'.

Length 163 m; draft 7.5 m.

Type: Ship (hazmat cat A). MMSI: 319591000.

Date/timePositionNaut miles runAvg speedWind from/ knotsBaromVisibWave heightAir tempDewpointWater temp
2014-Nov-20 04:20N 25°47' W 079°47'810.7
2014-Nov-20 03:34N 25°56' W 079°48'1110.6
2014-Nov-20 02:34N 26°06' W 079°50'1010.5
2014-Nov-20 01:34N 26°16' W 079°47'1010.5
2014-Nov-20 00:34N 26°27' W 079°46'1110.3
2014-Nov-19 23:33N 26°37' W 079°46'1410.4
2014-Nov-19 22:15N 26°51' W 079°45'710.2
2014-Nov-19 21:34N 26°58' W 079°45'314 8.5
2014-Nov-18 08:23N 32°05' W 081°03'0 0.0
2014-Nov-18 07:26N 32°05' W 081°03'0 0.0
2014-Nov-18 05:32N 32°05' W 081°03'0 0.0
2014-Nov-18 04:32N 32°05' W 081°03'0 0.0
2014-Nov-18 03:32N 32°05' W 081°03'0 0.0
2014-Nov-18 02:32N 32°05' W 081°03'0 0.0
2014-Nov-18 01:32N 32°05' W 081°03'0 0.0
2014-Nov-18 00:32N 32°05' W 081°03'0 0.0
2014-Nov-17 23:32N 32°05' W 081°03'0 0.0
2014-Nov-17 22:29N 32°05' W 081°03'0 0.0
2014-Nov-17 21:32N 32°05' W 081°03'0 0.0
2014-Nov-17 20:32N 32°05' W 081°03'0 0.0
2014-Nov-17 19:32N 32°05' W 081°03'0 0.0
2014-Nov-17 18:30N 32°05' W 081°03'0 0.0
2014-Nov-17 17:32N 32°05' W 081°03'1 1.1
2014-Nov-17 16:33N 32°05' W 081°04'  
2014-Nov-15 01:33N 39°28' W 073°55'1010.3
2014-Nov-15 00:33N 39°38' W 073°53'1110.3
2014-Nov-14 23:30N 39°49' W 073°52'39 9.8
2014-Nov-14 19:33N 40°28' W 073°51'1010.0
2014-Nov-14 18:33N 40°34' W 074°02'6 6.2
2014-Nov-14 17:33N 40°39' W 074°07'0 0.0
2014-Nov-14 05:33N 40°39' W 074°07'3 2.6
2014-Nov-14 04:32N 40°41' W 074°08'1 0.0
2014-Nov-13 06:33N 40°41' W 074°08'2 2.2
2014-Nov-13 05:31N 40°39' W 074°06'0 0.0
2014-Nov-12 15:16N 40°39' W 074°06'0 0.0
2014-Nov-12 14:31N 40°39' W 074°06'0 0.0
2014-Nov-12 13:31N 40°39' W 074°06'0 0.0
2014-Nov-12 12:16N 40°39' W 074°06'2 2.3
2014-Nov-12 11:33N 40°39' W 074°04'1 0.6
2014-Nov-12 10:32N 40°38' W 074°04'0 0.0
2014-Nov-12 09:32N 40°38' W 074°04'0 0.0
2014-Nov-12 08:32N 40°38' W 074°04'0 0.0
2014-Nov-12 07:32N 40°38' W 074°04'0 0.0
2014-Nov-12 06:32N 40°38' W 074°04'0 0.3
2014-Nov-12 05:33N 40°38' W 074°04'7 7.2
2014-Nov-12 04:33N 40°31' W 073°60'1010.1
2014-Nov-12 03:33N 40°26' W 073°48'8 8.5
2014-Nov-12 02:33N 40°18' W 073°46'9 8.6
2014-Nov-12 01:33N 40°09' W 073°45'1312.7
2014-Nov-12 00:33N 39°57' W 073°44'1313.0
2014-Nov-11 23:33N 39°44' W 073°42'1313.0
2014-Nov-11 22:33N 39°31' W 073°40'1312.9
2014-Nov-11 21:33N 39°18' W 073°37'1313.0
2014-Nov-11 20:33N 39°05' W 073°35'1312.7
2014-Nov-11 19:33N 38°53' W 073°33'1312.7
2014-Nov-11 18:33N 38°40' W 073°31'1212.5
2014-Nov-11 17:33N 38°28' W 073°29'1312.6
2014-Nov-11 16:33N 38°15' W 073°27'  

Dump ship's entire track history